Columbia Falls, MT

4:12 AM MST on March 03, 2015 (GMT -0700)
Tamarack Lane | Change Station
CLOSE
Current Station
Personal Weather Station
Location: Columbia Falls, Mt
Elevation: 3133 ft
Nearby Weather Stations
Active Advisory: Winter Weather Advisory

Elev 3133 ft 48.38 °N, 114.19 °W | Updated 2 minutes ago

Overcast
Overcast
16.6 °F
Feels Like 17 °F
N
0.4
Wind Variable Wind from South
Gusts 0.4 mph

Today
High -- | Low -- °F
--% Chance of Precip.
Yesterday
High -- | Low -- °F
Precip. -- in
7:14 AM 6:23 PM
Waxing Gibbous, 95% visible
Pressure 30.41 in
Visibility 10.0 miles
Clouds Few 5000 ft
Windchill 17 °F
Dew Point 2 °F
Humidity 52%
Rainfall 0.00 in
Snow Depth Not available.
UV 0 out of 12
Pollen .50 out of 12
Air Quality Not available.
Flu Activity Not available.
METAR KCTB 031056Z AUTO 29008KT 10SM FEW050 M19/M22 A3019 RMK AO2 SLP297 T11891217

More Conditions Fewer Conditions

Pressure 30.41 in
Visibility 10.0 miles
Clouds Few 5000 ft
Windchill 17 °F
Dew Point 2 °F
Humidity 52%
Rainfall 0.00 in
Snow Depth Not available.
UV 0 out of 12
Pollen .50 out of 12
Air Quality Not available.
Flu Activity Not available.
METAR KCTB 031056Z AUTO 29008KT 10SM FEW050 M19/M22 A3019 RMK AO2 SLP297 T11891217

More Conditions Fewer Conditions

10-Day Weather Forecast

Almanac

Astronomy

Mar. 03, 2015 Rise Set
Actual Time
Civil Twilight
Nautical Twilight
Astronomical Twilight
Moon
Length of Visible Light
Length of Day
Tomorrow will be .
, % of the Moon is Illuminated

Today's Extremes

State Highs State Lows

Community

WunderPhotos

Upload Photos

1,802,088 photos uploaded!

WunderBlogs® & News

Nearby

Air Quality

  Air Quality AQ Index Pollutant
Not available.

Snow Depth

Station Depth Elevation

Earthquake Activity

City Distance Mag. Time & Date
Minimum magnitude displayed is 2.5.

Coastal Water Temperatures

Place Temperature

Nearby Weather Stations

Winter Weather Advisory
Statement as of 2:10 AM MST on March 03, 2015

... Winter Weather Advisory in effect until 11 am MST this
morning...
... Winter Storm Warning is cancelled...

The National Weather Service in Missoula has issued a Winter
Weather Advisory for cold wind chills and slick roads... which is
in effect until 11 am MST this morning. The Winter Storm Warning
has been cancelled.

** Impacts/timing: gusty northeast winds will persist through the
morning hours. These will produce very local areas of blowing
snow and cold wind chills through Tuesday morning. A few roads
will be snow covered and slick. Cold and wet conditions will
stress Newborn livestock.

* Wind chills: single digit to 10 below zero.

* Locations impacted include... Flathead Lake... Flathead Valley...
   Mission Valley... Polson

Precautionary/preparedness actions...

Cold wind chills will result in frost bite and lead to
hypothermia if precautions are not taken. If you must venture
outdoors... make sure you wear a hat and gloves. These cold
conditions will put stress on Newborn livestock.